Time;durP1;ratioP1;P1;durP2;ratioP2;P2;SDS_P1;SDS_P2;PMS_P1;PMS_P2;Temp;Humidity;BMP_temperature;BMP_pressure;BME280_temperature;BME280_humidity;BME280_pressure;Samples;Min_cycle;Max_cycle;Signal;HPM_P1;HPM_P2
2022/05/05 00:01:01;;;;;;;5.40;3.10;;;;;;;7.23;76.45;101175.98;105363;1288;76864;-83
2022/05/05 00:03:30;;;;;;;7.50;3.60;;;;;;;7.18;77.59;101179.27;105373;1287;70236;-83
2022/05/05 00:05:57;;;;;;;5.80;2.60;;;;;;;7.12;77.28;101177.18;105371;1286;74548;-84
2022/05/05 00:08:35;;;;;;;;;;;;;;;;;;;;;
2022/05/05 00:14:27;;;;;;;9.50;3.70;;;;;;;6.94;77.20;101178.27;105619;1287;78602;-82
2022/05/05 00:17:39;;;;;;;;;;;;;;;;;;;;;
2022/05/05 00:20:18;;;;;;;5.30;2.90;;;;;;;6.80;77.98;101185.58;105684;1287;73070;-83
2022/05/05 00:22:54;;;;;;;4.10;2.80;;;;;;;6.75;78.31;101185.32;105772;1286;61638;-84
2022/05/05 00:25:24;;;;;;;8.30;3.70;;;;;;;6.71;78.71;101185.84;105747;1287;60632;-84
2022/05/05 00:27:56;;;;;;;4.30;2.60;;;;;;;6.66;78.90;101192.21;105537;1288;77248;-84
2022/05/05 00:30:23;;;;;;;7.90;3.20;;;;;;;6.62;79.09;101192.77;105499;1288;71435;-83
2022/05/05 00:32:58;;;;;;;8.90;2.60;;;;;;;6.57;79.31;101199.23;105421;1287;73004;-84
2022/05/05 00:35:44;;;;;;;4.10;2.10;;;;;;;6.51;79.38;101202.71;105510;1287;63520;-84
2022/05/05 00:38:11;;;;;;;3.60;2.00;;;;;;;6.45;79.90;101203.95;105636;1287;61991;-84
2022/05/05 00:41:04;;;;;;;4.40;3.00;;;;;;;6.38;79.63;101203.30;105580;1287;75213;-84
2022/05/05 00:46:36;;;;;;;5.20;2.50;;;;;;;6.24;80.52;101211.41;105512;1288;71967;-82
2022/05/05 00:49:22;;;;;;;6.20;2.60;;;;;;;6.17;80.39;101212.39;105610;1287;62743;-83
2022/05/05 00:51:54;;;;;;;6.00;2.50;;;;;;;6.10;80.56;101211.36;105751;1287;62143;-82
2022/05/05 00:54:43;;;;;;;10.30;3.10;;;;;;;6.03;80.75;101211.06;105811;1287;76967;-83
2022/05/05 00:57:13;;;;;;;6.60;3.20;;;;;;;5.98;80.90;101210.54;105817;1287;71327;-83
2022/05/05 00:59:52;;;;;;;;;;;;;;;;;;;;;
2022/05/05 01:02:20;;;;;;;5.00;2.60;;;;;;;5.87;81.52;101212.48;105776;1287;63333;-83
2022/05/05 01:04:58;;;;;;;6.60;2.30;;;;;;;5.81;81.81;101209.80;105634;1287;61952;-82
2022/05/05 01:07:25;;;;;;;5.20;2.00;;;;;;;5.76;82.11;101213.05;105532;1288;77356;-82
2022/05/05 01:09:57;;;;;;;11.90;3.10;;;;;;;5.70;82.37;101212.64;105823;1287;71299;-83
2022/05/05 01:13:13;;;;;;;6.60;2.90;;;;;;;5.67;82.04;101219.09;105540;1287;71706;-83
2022/05/05 01:16:20;;;;;;;7.80;3.10;;;;;;;5.62;81.94;101218.62;105787;1287;62270;-83
2022/05/05 01:18:56;;;;;;;3.90;2.30;;;;;;;5.57;81.86;101214.80;105787;1287;62119;-84
2022/05/05 01:21:45;;;;;;;8.20;3.70;;;;;;;5.54;81.79;101222.50;105840;1287;75903;-83
2022/05/05 01:24:19;;;;;;;9.40;3.00;;;;;;;5.45;82.38;101214.64;105685;1286;71400;-84
2022/05/05 01:30:52;;;;;;;;;;;;;;;;;;;;;
2022/05/05 01:33:32;;;;;;;5.20;2.50;;;;;;;5.40;82.55;101229.05;105823;1287;62216;-84
2022/05/05 01:36:18;;;;;;;7.10;2.70;;;;;;;5.37;82.63;101231.42;105315;1288;75458;-83
2022/05/05 01:38:53;;;;;;;;;;;;;;;5.34;83.06;101235.73;105712;1287;70616;-83
2022/05/05 01:41:28;;;;;;;9.00;2.60;;;;;;;5.29;82.76;101233.86;105607;1287;73439;-84
2022/05/05 01:43:56;;;;;;;5.30;3.30;;;;;;;5.28;82.78;101235.31;105525;1287;62110;-84
2022/05/05 01:46:33;;;;;;;8.50;3.70;;;;;;;5.25;82.73;101239.42;105313;1288;62547;-82
2022/05/05 01:49:03;;;;;;;5.70;2.60;;;;;;;5.22;83.22;101239.98;105483;1288;75249;-83
2022/05/05 01:51:43;;;;;;;5.90;3.50;;;;;;;5.20;83.58;101239.83;105633;1287;72804;-83
2022/05/05 01:54:10;;;;;;;5.60;3.00;;;;;;;5.16;83.49;101241.20;105673;1287;74539;-84
2022/05/05 01:57:06;;;;;;;7.10;3.00;;;;;;;5.16;83.32;101246.48;106018;1287;62060;-83
2022/05/05 01:59:39;;;;;;;4.10;2.80;;;;;;;5.12;83.32;101248.88;105625;1287;62132;-83
2022/05/05 02:02:14;;;;;;;5.50;3.20;;;;;;;5.11;83.61;101256.30;105669;1287;74849;-84
2022/05/05 02:04:53;;;;;;;9.20;3.80;;;;;;;5.09;83.56;101258.78;105528;1287;71190;-84
2022/05/05 02:07:46;;;;;;;;;;;;;;;;;;;;;
2022/05/05 02:10:20;;;;;;;7.10;4.10;;;;;;;5.04;83.59;101261.15;105762;1286;62363;-83
2022/05/05 02:12:53;;;;;;;9.60;4.00;;;;;;;5.01;83.35;101266.09;105795;1287;61235;-84
2022/05/05 02:15:42;;;;;;;5.00;3.40;;;;;;;4.99;83.51;101265.98;105422;1287;76812;-84
2022/05/05 02:18:14;;;;;;;7.60;3.40;;;;;;;4.96;83.44;101266.36;106369;1287;71801;-83
2022/05/05 02:20:43;;;;;;;7.40;3.80;;;;;;;4.95;83.82;101272.60;106300;1288;73084;-84
2022/05/05 02:23:22;;;;;;;7.80;4.10;;;;;;;4.93;83.65;101272.55;106801;1287;60926;-84
2022/05/05 02:25:52;;;;;;;13.20;4.60;;;;;;;4.91;84.25;101274.27;106463;1287;61230;-84
2022/05/05 02:28:26;;;;;;;8.20;4.30;;;;;;;4.92;84.13;101273.35;106514;1287;75933;-84
2022/05/05 02:31:08;;;;;;;9.80;3.80;;;;;;;4.92;84.17;101275.78;106350;1286;71651;-85
2022/05/05 02:34:08;;;;;;;;;;;;;;;;;;;;;
2022/05/05 02:39:31;;;;;;;7.60;3.30;;;;;;;4.87;83.72;101273.88;106974;1287;60649;-84
2022/05/05 02:42:01;;;;;;;7.90;5.00;;;;;;;4.84;83.64;101272.00;106886;1287;75786;-83
2022/05/05 02:44:28;;;;;;;5.80;4.10;;;;;;;4.82;83.65;101275.34;106297;1287;72515;-84
2022/05/05 02:47:00;;;;;;;8.10;4.10;;;;;;;4.79;83.40;101277.52;106919;1287;74047;-84
2022/05/05 02:49:32;;;;;;;8.90;4.00;;;;;;;4.76;83.65;101277.38;106844;1287;62229;-83
2022/05/05 02:52:00;;;;;;;8.30;4.50;;;;;;;4.73;83.76;101272.90;106620;1287;60648;-84
2022/05/05 02:54:50;;;;;;;6.00;3.70;;;;;;;4.70;83.86;101267.16;106646;1287;76072;-84
2022/05/05 02:57:24;;;;;;;9.20;4.40;;;;;;;4.67;83.77;101269.17;106031;1288;72767;-83
2022/05/05 03:00:00;;;;;;;6.20;4.10;;;;;;;4.63;83.59;101269.47;105386;1287;73515;-83
2022/05/05 03:02:47;;;;;;;7.20;4.30;;;;;;;4.60;83.65;101272.34;105396;1287;62017;-84
2022/05/05 03:05:22;;;;;;;6.70;3.60;;;;;;;4.57;83.80;101273.98;105482;1287;61033;-85
2022/05/05 03:07:52;;;;;;;5.70;4.10;;;;;;;4.54;83.88;101270.39;105693;1287;75741;-84
2022/05/05 03:10:18;;;;;;;7.90;3.70;;;;;;;4.50;83.98;101265.95;105628;1287;71779;-85
2022/05/05 03:12:45;;;;;;;5.60;3.60;;;;;;;4.48;84.05;101263.33;105650;1287;74152;-84
2022/05/05 03:15:17;;;;;;;10.30;4.60;;;;;;;4.45;84.02;101263.73;105489;1287;62742;-84
2022/05/05 03:17:49;;;;;;;8.20;4.30;;;;;;;4.42;84.52;101268.71;105678;1287;60718;-84
2022/05/05 03:20:19;;;;;;;8.50;5.00;;;;;;;4.40;85.00;101268.86;105562;1287;76941;-85
2022/05/05 03:22:48;;;;;;;7.70;3.80;;;;;;;4.38;85.40;101267.25;105582;1287;71599;-84
2022/05/05 03:25:22;;;;;;;10.90;5.30;;;;;;;4.37;85.47;101272.46;105643;1288;74195;-84
2022/05/05 03:27:55;;;;;;;18.00;6.00;;;;;;;4.34;85.78;101270.35;105530;1288;61962;-84
2022/05/05 03:30:25;;;;;;;7.90;4.60;;;;;;;4.33;86.19;101272.59;105593;1286;62126;-84
2022/05/05 03:33:00;;;;;;;12.80;6.70;;;;;;;4.30;86.03;101271.03;105671;1287;75794;-85
2022/05/05 03:35:27;;;;;;;6.20;3.80;;;;;;;4.27;86.01;101275.30;105649;1287;72424;-84
2022/05/05 03:37:57;;;;;;;10.40;5.10;;;;;;;4.22;86.07;101274.96;105556;1288;74014;-84
2022/05/05 03:40:45;;;;;;;11.90;4.90;;;;;;;4.19;86.15;101276.77;105531;1287;62519;-84
2022/05/05 03:43:12;;;;;;;7.20;4.30;;;;;;;4.16;86.41;101276.55;105385;1288;59860;-84
2022/05/05 03:46:08;;;;;;;7.60;4.40;;;;;;;4.13;86.39;101281.48;105451;1288;75858;-85
2022/05/05 03:48:50;;;;;;;;;;;;;;;;;;;;;
2022/05/05 03:51:44;;;;;;;8.60;4.50;;;;;;;4.06;86.71;101279.52;105739;1287;71928;-83
2022/05/05 03:54:39;;;;;;;10.30;5.00;;;;;;;4.04;86.81;101275.30;105788;1287;61943;-83
2022/05/05 03:57:34;;;;;;;7.10;4.70;;;;;;;4.04;87.30;101281.45;105474;1287;61598;-84
2022/05/05 04:00:14;;;;;;;10.00;4.90;;;;;;;4.04;87.69;101282.13;105505;1288;75943;-84
2022/05/05 04:06:19;;;;;;;13.80;5.60;;;;;;;4.07;87.95;101280.69;105743;1287;75471;-84
2022/05/05 04:08:54;;;;;;;12.00;6.00;;;;;;;4.09;88.41;101280.50;105664;1287;62145;-84
2022/05/05 04:11:21;;;;;;;7.10;5.00;;;;;;;4.12;88.71;101280.15;105853;1287;62099;-81
2022/05/05 04:13:47;;;;;;;7.50;5.40;;;;;;;4.15;88.56;101284.15;105719;1287;77360;-81
2022/05/05 04:16:14;;;;;;;10.70;5.50;;;;;;;4.18;88.72;101287.06;105413;1288;71605;-82
2022/05/05 04:18:41;;;;;;;15.50;5.30;;;;;;;4.22;88.70;101283.74;105340;1287;73085;-81
2022/05/05 04:21:11;;;;;;;9.50;5.50;;;;;;;4.27;88.91;101286.52;105616;1287;62036;-83
2022/05/05 04:23:38;;;;;;;10.80;4.90;;;;;;;4.32;88.95;101288.61;105516;1288;61605;-81
2022/05/05 04:26:47;;;;;;;10.00;4.30;;;;;;;4.39;88.85;101286.58;105574;1287;76001;-85
2022/05/05 04:29:14;;;;;;;10.80;6.40;;;;;;;4.49;88.87;101290.02;105511;1287;70478;-81
2022/05/05 04:31:46;;;;;;;15.20;6.30;;;;;;;4.57;88.84;101292.43;105699;1287;72890;-83
2022/05/05 04:34:12;;;;;;;16.40;6.00;;;;;;;4.65;89.13;101297.04;105670;1287;61981;-81
2022/05/05 04:36:43;;;;;;;20.00;6.20;;;;;;;4.72;88.66;101296.28;105751;1287;62068;-82
2022/05/05 04:39:19;;;;;;;18.90;6.50;;;;;;;4.78;88.66;101297.04;105625;1287;75817;-80
2022/05/05 04:42:05;;;;;;;18.20;6.20;;;;;;;4.87;88.53;101301.20;105369;1288;70357;-80
2022/05/05 04:44:32;;;;;;;16.90;5.30;;;;;;;4.96;88.60;101303.83;105588;1287;73058;-83
2022/05/05 04:47:01;;;;;;;12.80;5.40;;;;;;;5.03;88.68;101304.15;105594;1287;62141;-83
2022/05/05 04:49:29;;;;;;;12.20;5.90;;;;;;;5.10;88.59;101306.91;105650;1287;62499;-83
2022/05/05 04:51:55;;;;;;;25.50;7.00;;;;;;;5.18;88.24;101306.84;105620;1287;77434;-80
2022/05/05 04:54:22;;;;;;;18.30;6.30;;;;;;;5.26;88.42;101310.52;105638;1287;61996;-83
2022/05/05 04:56:58;;;;;;;15.70;7.00;;;;;;;5.33;87.97;101314.02;105556;1287;73064;-82
2022/05/05 04:59:25;;;;;;;42.80;10.00;;;;;;;5.43;88.16;101318.64;105602;1288;62694;-81
2022/05/05 05:01:54;;;;;;;21.90;6.60;;;;;;;5.52;87.71;101318.60;105623;1287;62092;-81
2022/05/05 05:04:20;;;;;;;17.00;6.10;;;;;;;5.61;87.79;101317.98;105430;1288;75965;-82
2022/05/05 05:06:47;;;;;;;30.50;6.40;;;;;;;5.70;87.47;101315.64;105624;1287;71176;-81
2022/05/05 05:09:14;;;;;;;21.90;6.80;;;;;;;5.79;87.05;101322.88;105482;1288;61865;-82
2022/05/05 05:11:43;;;;;;;28.60;5.90;;;;;;;5.86;86.79;101322.40;105533;1287;62107;-82
2022/05/05 05:14:10;;;;;;;22.10;5.30;;;;;;;5.94;86.16;101327.03;105814;1287;62077;-82
2022/05/05 05:16:41;;;;;;;17.80;6.60;;;;;;;6.02;85.96;101330.76;105683;1287;74587;-84
2022/05/05 05:19:11;;;;;;;20.90;6.70;;;;;;;6.12;85.59;101332.56;105481;1288;71582;-82
2022/05/05 05:21:46;;;;;;;;;;;;;;;6.22;85.12;101330.51;105721;1286;72031;-82
2022/05/05 05:24:14;;;;;;;15.40;5.70;;;;;;;6.31;84.96;101328.86;105498;1288;62141;-82
2022/05/05 05:26:40;;;;;;;17.30;6.40;;;;;;;6.42;84.73;101326.36;105978;1287;61271;-82
2022/05/05 05:29:19;;;;;;;18.50;5.90;;;;;;;6.52;84.26;101328.42;105563;1287;77048;-82
2022/05/05 05:31:46;;;;;;;21.30;6.90;;;;;;;6.64;83.93;101330.19;105598;1287;70156;-82
2022/05/05 05:34:17;;;;;;;28.30;5.50;;;;;;;6.76;83.59;101328.65;105427;1288;73782;-82
2022/05/05 05:36:49;;;;;;;20.40;5.10;;;;;;;6.88;82.86;101328.48;105833;1287;62243;-83
2022/05/05 05:39:22;;;;;;;19.80;5.90;;;;;;;6.97;81.88;101331.56;105837;1288;62105;-84
2022/05/05 05:41:49;;;;;;;19.10;7.00;;;;;;;6.99;81.71;101326.45;106074;1287;76053;-84
2022/05/05 05:44:19;;;;;;;34.30;9.10;;;;;;;7.11;81.14;101337.90;105808;1287;71570;-83
2022/05/05 05:46:55;;;;;;;23.30;8.60;;;;;;;7.19;80.69;101335.23;105451;1287;74097;-83
2022/05/05 05:49:27;;;;;;;28.60;8.30;;;;;;;7.27;80.76;101336.46;105389;1287;63364;-83
2022/05/05 05:52:03;;;;;;;26.80;8.30;;;;;;;7.41;80.78;101336.09;105448;1288;62076;-82
2022/05/05 05:54:30;;;;;;;23.50;7.00;;;;;;;7.55;80.21;101342.23;105561;1287;76772;-82
2022/05/05 05:56:57;;;;;;;20.40;6.40;;;;;;;7.67;80.15;101342.30;105629;1287;71571;-82
2022/05/05 05:59:24;;;;;;;20.30;5.90;;;;;;;7.80;79.40;101348.23;105395;1288;72985;-82
2022/05/05 06:04:59;;;;;;;19.60;6.10;;;;;;;8.02;77.93;101356.26;106620;1287;60757;-83
2022/05/05 06:07:28;;;;;;;15.10;5.50;;;;;;;8.11;77.59;101356.73;106697;1288;75839;-81
2022/05/05 06:09:55;;;;;;;14.10;5.50;;;;;;;8.25;77.37;101359.41;107020;1287;72257;-81
2022/05/05 06:12:21;;;;;;;12.20;5.60;;;;;;;8.37;76.27;101364.77;106750;1288;74594;-80
2022/05/05 06:14:57;;;;;;;9.90;4.90;;;;;;;8.47;75.89;101368.73;106856;1286;61620;-80
2022/05/05 06:17:23;;;;;;;10.00;4.70;;;;;;;8.61;74.90;101369.95;106616;1288;60916;-81
2022/05/05 06:19:50;;;;;;;16.20;6.50;;;;;;;8.72;74.28;101371.05;106334;1287;75366;-82
2022/05/05 06:22:17;;;;;;;14.80;6.80;;;;;;;8.80;73.43;101375.23;106032;1287;71581;-81
2022/05/05 06:24:43;;;;;;;14.60;5.70;;;;;;;8.87;73.83;101375.23;106093;1287;73199;-83
2022/05/05 06:27:10;;;;;;;12.60;5.40;;;;;;;8.94;73.36;101380.23;106630;1287;62090;-81
2022/05/05 06:29:37;;;;;;;17.20;8.10;;;;;;;9.03;73.54;101378.15;106579;1286;60591;-81
2022/05/05 06:32:04;;;;;;;10.70;5.20;;;;;;;9.15;73.74;101379.81;106528;1288;76762;-83
2022/05/05 06:34:34;;;;;;;11.80;6.50;;;;;;;9.26;72.71;101381.59;106820;1287;71293;-81
2022/05/05 06:37:03;;;;;;;12.10;5.50;;;;;;;9.34;72.21;101383.00;106521;1287;71928;-81
2022/05/05 06:39:30;;;;;;;13.30;5.70;;;;;;;9.44;71.68;101382.23;106488;1287;62118;-80
2022/05/05 06:41:57;;;;;;;11.50;5.00;;;;;;;9.57;71.52;101384.66;106486;1288;60617;-82
2022/05/05 06:44:23;;;;;;;12.30;5.20;;;;;;;9.71;70.69;101387.74;106620;1287;76886;-81
2022/05/05 06:46:50;;;;;;;8.20;5.70;;;;;;;9.85;70.47;101390.77;106384;1290;71690;-84
2022/05/05 06:49:17;;;;;;;8.30;4.10;;;;;;;9.97;69.78;101392.77;106544;1288;73952;-80
2022/05/05 06:51:44;;;;;;;5.90;4.00;;;;;;;10.08;68.06;101394.13;106705;1287;62240;-82
2022/05/05 06:54:11;;;;;;;15.30;4.90;;;;;;;10.19;67.97;101396.14;106827;1287;60823;-83
2022/05/05 06:56:37;;;;;;;14.90;4.40;;;;;;;10.30;67.15;101398.31;106531;1288;76793;-83
2022/05/05 06:59:04;;;;;;;6.90;4.50;;;;;;;10.39;66.31;101397.72;106451;1288;71213;-82
2022/05/05 07:07:14;;;;;;;15.10;6.00;;;;;;;10.92;63.44;101389.90;106437;1287;62168;-81
2022/05/05 07:12:36;;;;;;;7.90;4.60;;;;;;;11.33;61.96;101397.16;106294;1288;73088;-83
2022/05/05 07:15:03;;;;;;;13.00;5.40;;;;;;;11.45;60.48;101397.52;106863;1287;73401;-80
2022/05/05 07:17:30;;;;;;;17.60;6.00;;;;;;;11.58;60.68;101392.93;106427;1287;61957;-81
2022/05/05 07:19:58;;;;;;;15.90;6.50;;;;;;;11.75;60.50;101397.65;106245;1287;61743;-82
2022/05/05 07:22:25;;;;;;;6.80;4.00;;;;;;;11.92;59.80;101404.38;106007;1287;76761;-81
2022/05/05 07:24:51;;;;;;;12.00;4.90;;;;;;;11.98;57.44;101404.38;106056;1288;71556;-82
2022/05/05 07:27:18;;;;;;;10.00;3.90;;;;;;;12.05;57.22;101405.64;106140;1287;72766;-81
2022/05/05 07:29:45;;;;;;;9.20;3.90;;;;;;;12.11;56.46;101407.58;105222;1287;61173;-86
2022/05/05 07:32:12;;;;;;;8.50;3.40;;;;;;;12.17;55.26;101406.83;105168;1287;62596;-79
2022/05/05 07:34:40;;;;;;;11.30;3.40;;;;;;;12.18;55.14;101407.39;105041;1288;75819;-87
2022/05/05 07:37:07;;;;;;;7.80;3.30;;;;;;;12.31;55.65;101404.73;105176;1287;72407;-82
2022/05/05 07:39:33;;;;;;;9.50;3.40;;;;;;;12.38;53.74;101410.18;105136;1288;71943;-79
2022/05/05 07:42:00;;;;;;;8.80;3.30;;;;;;;12.46;53.89;101406.34;105297;1287;62132;-81
2022/05/05 07:44:27;;;;;;;11.80;4.60;;;;;;;12.58;53.83;101411.85;105109;1287;61992;-80
2022/05/05 07:46:55;;;;;;;7.60;3.50;;;;;;;12.70;53.61;101413.96;105264;1287;75385;-81
2022/05/05 07:49:22;;;;;;;8.50;3.60;;;;;;;12.82;52.97;101417.38;105210;1287;72372;-83
2022/05/05 07:51:51;;;;;;;7.40;3.50;;;;;;;12.92;52.96;101421.98;105144;1288;73267;-84
2022/05/05 07:54:34;;;;;;;10.80;3.90;;;;;;;13.04;52.63;101419.35;105255;1287;62219;-81
2022/05/05 07:57:02;;;;;;;8.80;3.50;;;;;;;13.15;51.33;101421.14;105348;1286;61943;-82
2022/05/05 07:59:29;;;;;;;11.50;4.40;;;;;;;13.22;51.30;101414.69;105293;1287;75779;-82
2022/05/05 08:01:57;;;;;;;9.30;3.40;;;;;;;13.30;51.27;101416.42;105289;1288;71865;-85
2022/05/05 08:04:24;;;;;;;7.80;3.10;;;;;;;13.37;49.50;101421.72;105474;1287;73009;-80
2022/05/05 08:06:52;;;;;;;6.80;2.90;;;;;;;13.45;49.54;101420.53;105399;1287;62168;-80
2022/05/05 08:09:18;;;;;;;6.90;2.80;;;;;;;13.52;49.68;101423.83;105126;1287;63579;-81
2022/05/05 08:11:45;;;;;;;11.00;3.30;;;;;;;13.64;49.51;101421.02;105338;1287;75782;-81
2022/05/05 08:14:11;;;;;;;12.40;3.80;;;;;;;13.80;49.58;101423.47;105165;1287;60872;-82
2022/05/05 08:16:38;;;;;;;7.30;2.90;;;;;;;13.96;49.70;101421.60;104994;1287;71037;-83
2022/05/05 08:19:06;;;;;;;6.50;2.90;;;;;;;14.11;48.52;101424.11;105159;1287;62743;-80
2022/05/05 08:21:33;;;;;;;8.80;3.60;;;;;;;14.16;47.31;101425.67;105147;1287;62160;-81
2022/05/05 08:29:37;;;;;;;8.50;3.70;;;;;;;14.48;47.59;101433.11;104292;1287;73046;-80
2022/05/05 08:32:04;;;;;;;9.50;3.10;;;;;;;14.53;46.88;101435.77;105028;1287;62118;-80
2022/05/05 08:34:31;;;;;;;6.90;2.90;;;;;;;14.55;44.62;101439.59;104893;1287;61679;-80
2022/05/05 08:36:58;;;;;;;9.40;3.00;;;;;;;14.46;42.33;101437.98;105028;1287;62635;-80
2022/05/05 08:39:25;;;;;;;8.40;2.80;;;;;;;14.47;43.90;101441.95;105064;1287;71331;-80
2022/05/05 08:41:54;;;;;;;11.10;4.70;;;;;;;14.53;42.38;101441.41;104943;1287;74064;-80
2022/05/05 08:44:20;;;;;;;9.70;4.90;;;;;;;14.59;43.39;101442.89;106660;1287;62087;-81
2022/05/05 08:46:48;;;;;;;9.50;2.90;;;;;;;14.56;44.11;101443.27;104481;1291;62997;-80
2022/05/05 08:49:20;;;;;;;11.40;3.80;;;;;;;14.64;44.46;101443.31;104953;1287;76856;-81
2022/05/05 08:51:52;;;;;;;9.00;3.30;;;;;;;14.78;44.35;101443.66;104831;1290;72031;-83
2022/05/05 08:54:21;;;;;;;7.50;3.50;;;;;;;14.80;43.22;101441.73;105171;1288;74397;-81
2022/05/05 08:56:50;;;;;;;7.60;2.60;;;;;;;14.90;44.24;101443.13;105228;1287;62490;-81
2022/05/05 08:59:19;;;;;;;5.90;2.90;;;;;;;14.96;43.75;101442.73;105100;1287;61995;-85
2022/05/05 09:01:46;;;;;;;8.10;2.80;;;;;;;15.01;43.70;101445.96;104809;1287;76997;-83
2022/05/05 09:04:12;;;;;;;5.70;2.60;;;;;;;15.02;42.41;101446.30;105100;1287;72069;-84
2022/05/05 09:06:48;;;;;;;7.70;2.70;;;;;;;15.02;42.38;101451.80;105249;1286;73024;-82
2022/05/05 09:09:36;;;;;;;6.40;2.60;;;;;;;15.11;43.11;101449.13;105101;1287;62571;-82
2022/05/05 09:12:20;;;;;;;6.10;3.00;;;;;;;15.25;43.28;101449.47;105121;1288;61996;-82
2022/05/05 09:14:52;;;;;;;10.70;3.00;;;;;;;15.31;43.32;101453.60;105031;1285;77183;-80
2022/05/05 09:17:21;;;;;;;6.20;2.80;;;;;;;15.43;42.76;101454.94;104868;1290;71522;-84
2022/05/05 09:19:54;;;;;;;7.50;3.00;;;;;;;15.53;42.29;101455.78;104825;1290;74023;-80
2022/05/05 09:22:25;;;;;;;5.40;2.80;;;;;;;15.64;42.17;101456.55;105403;1290;62113;-80
2022/05/05 09:24:56;;;;;;;8.10;3.30;;;;;;;15.79;41.88;101458.40;105240;1287;62217;-82
2022/05/05 09:27:27;;;;;;;7.00;2.50;;;;;;;15.90;40.56;101459.17;105483;1287;76834;-81
2022/05/05 09:30:06;;;;;;;9.40;3.20;;;;;;;16.03;40.39;101457.46;105222;1287;72559;-80
2022/05/05 09:32:38;;;;;;;7.20;3.00;;;;;;;16.13;40.46;101456.70;105297;1287;73219;-84
2022/05/05 09:35:13;;;;;;;5.30;2.50;;;;;;;16.25;40.67;101453.04;104989;1287;62043;-81
2022/05/05 09:37:48;;;;;;;6.50;2.90;;;;;;;16.33;40.18;101455.78;105209;1286;61990;-82
2022/05/05 09:40:20;;;;;;;9.30;3.10;;;;;;;16.34;40.75;101452.33;104900;1288;76854;-81
2022/05/05 09:42:52;;;;;;;7.40;2.80;;;;;;;16.50;41.92;101452.06;106091;1286;378070;-83
2022/05/05 09:45:24;;;;;;;7.00;3.00;;;;;;;16.69;40.65;101455.25;106423;1287;74126;-81
2022/05/05 09:47:53;;;;;;;8.50;2.30;;;;;;;16.63;39.11;101463.70;105042;1287;63667;-83
2022/05/05 09:50:24;;;;;;;3.10;1.80;;;;;;;16.42;38.81;101458.23;105241;1287;62006;-83
2022/05/05 09:58:37;;;;;;;5.70;2.10;;;;;;;16.34;41.10;101455.86;105557;1287;74369;-83
2022/05/05 10:01:13;;;;;;;;;;;;;;;16.38;41.21;101455.16;104730;1287;62014;-78
2022/05/05 10:04:00;;;;;;;5.80;2.20;;;;;;;16.46;41.16;101456.41;104868;1287;61902;-79
2022/05/05 10:06:40;;;;;;;4.20;2.00;;;;;;;16.55;40.23;101456.67;105502;1287;75511;-79
2022/05/05 10:09:14;;;;;;;6.30;2.20;;;;;;;16.63;40.41;101463.08;104935;1288;71449;-79
2022/05/05 10:11:41;;;;;;;2.50;1.60;;;;;;;16.77;40.51;101464.70;104884;1288;74044;-79
2022/05/05 10:14:13;;;;;;;3.70;1.50;;;;;;;16.88;39.12;101469.93;104858;1287;61939;-80
2022/05/05 10:16:42;;;;;;;4.90;1.60;;;;;;;16.80;38.11;101468.63;105250;1287;62073;-80
2022/05/05 10:19:10;;;;;;;4.10;1.70;;;;;;;16.69;39.22;101467.94;105144;1287;75836;-80
2022/05/05 10:21:55;;;;;;;6.10;2.30;;;;;;;16.54;39.55;101464.23;105162;1287;71696;-81
2022/05/05 10:24:32;;;;;;;;;;;;;;;16.51;39.21;101454.21;105105;1287;73008;-79
2022/05/05 10:27:04;;;;;;;5.30;1.80;;;;;;;16.41;38.74;101461.27;104884;1290;62275;-80
2022/05/05 10:29:35;;;;;;;9.40;4.60;;;;;;;16.32;38.39;101462.33;105001;1288;62020;-80
2022/05/05 10:32:33;;;;;;;3.70;1.70;;;;;;;16.28;39.08;101460.45;104853;1287;75790;-80
2022/05/05 10:35:12;;;;;;;6.60;2.10;;;;;;;16.21;39.38;101461.56;105315;1287;71543;-81
2022/05/05 10:37:39;;;;;;;5.90;1.90;;;;;;;16.22;39.70;101458.98;105205;1287;74056;-79
2022/05/05 10:40:10;;;;;;;4.40;1.90;;;;;;;16.29;39.19;101462.33;105096;1287;61933;-82
2022/05/05 10:42:39;;;;;;;8.00;4.80;;;;;;;16.37;39.12;101455.80;105162;1286;62074;-79
2022/05/05 10:45:16;;;;;;;3.80;1.10;;;;;;;16.49;39.70;101459.39;105198;1287;76882;-81
2022/05/05 10:47:57;;;;;;;4.70;1.50;;;;;;;16.65;38.23;101466.92;104790;1288;72577;-86
2022/05/05 10:50:33;;;;;;;5.30;1.40;;;;;;;16.68;37.47;101459.56;105147;1287;74324;-82
2022/05/05 10:53:01;;;;;;;;;;;;;;;16.77;38.54;101458.64;105414;1287;61979;-84
2022/05/05 10:55:43;;;;;;;4.50;2.00;;;;;;;16.95;38.70;101455.23;105231;1287;62718;-83
2022/05/05 10:58:59;;;;;;;2.80;1.40;;;;;;;17.12;37.60;101455.01;105235;1287;75756;-84
2022/05/05 11:01:27;;;;;;;5.00;1.80;;;;;;;17.30;37.84;101451.20;105516;1288;72131;-82
2022/05/05 11:04:15;;;;;;;3.70;1.60;;;;;;;17.50;36.93;101451.72;106322;1287;72433;-81
2022/05/05 11:06:43;;;;;;;3.30;1.50;;;;;;;17.60;36.94;101450.75;107190;1286;60342;-82
2022/05/05 11:09:29;;;;;;;4.10;1.80;;;;;;;17.60;36.44;101450.35;107171;1287;60529;-82
2022/05/05 11:12:20;;;;;;;4.10;1.50;;;;;;;17.53;36.52;101447.52;107272;1285;74687;-82
2022/05/05 11:23:42;;;;;;;1.90;1.50;;;;;;;17.85;35.83;101450.77;106710;1288;60063;-83
2022/05/05 11:26:10;;;;;;;4.20;1.60;;;;;;;18.02;35.65;101448.90;106169;1288;75879;-83
2022/05/05 11:28:37;;;;;;;2.00;1.00;;;;;;;18.24;36.08;101449.52;105685;1288;71558;-82
2022/05/05 11:31:21;;;;;;;3.40;1.00;;;;;;;18.49;34.94;101453.27;105202;1287;73697;-84
2022/05/05 11:33:53;;;;;;;;;;;;;;;18.46;33.73;101452.23;105440;1287;62240;-84
2022/05/05 11:36:24;;;;;;;2.20;0.90;;;;;;;18.39;34.09;101450.26;105325;1287;61289;-80
2022/05/05 11:38:51;;;;;;;5.80;1.40;;;;;;;18.42;34.33;101446.98;105565;1286;75719;-83
2022/05/05 11:41:19;;;;;;;2.30;0.90;;;;;;;18.47;33.54;101447.80;105591;1287;71543;-82
2022/05/05 11:46:33;;;;;;;2.70;0.70;;;;;;;18.60;33.12;101442.08;104600;1288;62094;-80
2022/05/05 11:49:00;;;;;;;2.70;1.10;;;;;;;18.71;33.16;101442.94;105522;1287;61517;-81
2022/05/05 11:51:29;;;;;;;2.30;0.60;;;;;;;18.93;33.32;101442.69;105461;1287;76884;-81
2022/05/05 11:54:16;;;;;;;3.70;1.40;;;;;;;19.23;32.94;101446.80;105420;1287;70928;-81
2022/05/05 11:56:45;;;;;;;4.30;0.80;;;;;;;19.52;32.26;101448.00;105500;1287;73121;-85
2022/05/05 12:02:13;;;;;;;1.80;0.80;;;;;;;20.40;31.79;101442.60;105051;1288;62051;-83
2022/05/05 12:04:42;;;;;;;2.50;0.50;;;;;;;20.88;30.61;101451.41;105291;1288;76770;-83
2022/05/05 12:07:18;;;;;;;1.90;0.70;;;;;;;21.10;29.51;101453.23;105245;1287;71144;-82
2022/05/05 12:09:47;;;;;;;3.80;1.10;;;;;;;21.17;29.02;101452.44;105285;1288;72976;-82
2022/05/05 12:12:21;;;;;;;2.80;0.90;;;;;;;21.42;29.09;101446.94;105385;1287;62101;-84
2022/05/05 12:14:54;;;;;;;3.90;1.00;;;;;;;21.76;28.87;101446.17;105479;1287;62097;-81
2022/05/05 12:17:34;;;;;;;3.20;0.90;;;;;;;22.15;28.00;101440.27;105309;1287;76873;-82
2022/05/05 12:20:05;;;;;;;1.70;0.60;;;;;;;22.47;26.92;101439.13;105164;1287;71208;-82
2022/05/05 12:22:41;;;;;;;3.00;0.90;;;;;;;22.84;27.23;101436.77;105021;1288;72869;-79
2022/05/05 12:25:15;;;;;;;2.30;0.60;;;;;;;23.17;26.22;101438.25;105234;1287;62204;-80
2022/05/05 12:28:08;;;;;;;1.20;0.50;;;;;;;23.51;25.98;101432.59;104870;1288;62126;-82
2022/05/05 12:30:37;;;;;;;1.60;0.50;;;;;;;23.80;25.37;101434.39;104808;1288;75823;-79
2022/05/05 12:33:05;;;;;;;2.10;0.70;;;;;;;23.92;25.31;101435.55;105031;1287;72818;-81
2022/05/05 12:35:37;;;;;;;2.00;0.60;;;;;;;24.20;24.90;101434.04;105160;1287;74607;-80
2022/05/05 12:38:08;;;;;;;1.40;0.60;;;;;;;24.64;24.68;101431.70;105029;1287;62084;-80
2022/05/05 12:40:37;;;;;;;1.10;0.60;;;;;;;25.04;23.36;101432.09;104874;1287;62249;-82
2022/05/05 12:43:06;;;;;;;1.40;0.80;;;;;;;25.41;23.10;101429.20;107155;1287;75709;-79
2022/05/05 12:45:34;;;;;;;3.20;0.60;;;;;;;26.01;22.89;101423.27;105226;1287;71494;-80
2022/05/05 12:48:06;;;;;;;2.80;1.20;;;;;;;27.29;21.85;101422.31;104868;1287;73779;-81
2022/05/05 12:50:46;;;;;;;2.10;0.70;;;;;;;28.58;20.15;101420.20;105059;1287;63762;-80